Tarrant West's Hourly Summary for Friday, July 6, 2018
Hour Temp
(f)
RH
(%)
Solar Rad.
(MJ/m2)
Rainfall
(in)
Wind
(mph)
7/6/2018 12:00 AM 85 57 0 0 7
7/6/2018 1:00 AM 84 60 0 0 2.9
7/6/2018 2:00 AM 82 64 0 0 1.92
7/6/2018 3:00 AM 78 73 0 0 4.29
7/6/2018 4:00 AM 76 77 0 0 3.71
7/6/2018 5:00 AM 76 78 0 0 4.09
7/6/2018 6:00 AM 75 81 0.01 0 4.47
7/6/2018 7:00 AM 76 81 0.26 0 4.36
7/6/2018 8:00 AM 80 74 0.91 0 6.33
7/6/2018 9:00 AM 83 67 1.57 0 5.39
7/6/2018 10:00 AM 86 60 1.86 0 4.36
7/6/2018 11:00 AM 88 52 2.46 0 4.34
7/6/2018 12:00 PM 90 48 2.57 0 6.06
7/6/2018 1:00 PM 91 43 2.43 0 7.26
7/6/2018 2:00 PM 93 39 2.66 0 7.62
7/6/2018 3:00 PM 95 35 2.14 0 7.69
7/6/2018 4:00 PM 94 36 1.38 0 10.28
7/6/2018 5:00 PM 77 78 0.26 0.62 8.43
7/6/2018 6:00 PM 82 68 0.67 0 3.11
7/6/2018 7:00 PM 83 65 0.46 0 3.82
7/6/2018 8:00 PM 82 64 0.13 0 3.51
7/6/2018 9:00 PM 80 72 0 0 6.3
7/6/2018 10:00 PM 78 76 0 0 6.82
7/6/2018 11:00 PM 77 79 0 0 3.33
Data Summary 82 63 19.77 0.62 5.31